LETL Airport Information

Runway Information
Runway 18 Length 9268 ft width 148 ft
Elevation ft Threshold ft Heading 0
Runway 36 Length 9268 ft Width 148 ft
Elevation ft Threshold ft Heading 0
Airport Frequencies
Airport Navaids
Airport Weather Information & NOTAM
ADDS - METARS form results

(2111 UTC 10 August 2022)
Data provider http://aviationweather.gov/metar/data/
 
METAR text: LETL 102100Z AUTO 14007KT CAVOK 23/08 Q1021
Conditions at: LETL (TERUEL , ES) observed 2100 UTC 10 August 2022
Temperature: 23.0°C (73°F)
Dewpoint: 8.0°C (46°F) [RH = 38%]
Pressure (altimeter): 30.15 inches Hg (1021.0 mb)
Winds: from the SE (140 degrees) at 8 MPH (7 knots; 3.6 m/s)
Visibility: 6 or more miles (10+ km)
Ceiling: ceiling and visibility are OK
Clouds: unknown
Weather: no significant weather observed at this time

METAR text: LETL 102030Z AUTO 14011KT CAVOK 24/08 Q1020
Conditions at: LETL (TERUEL , ES) observed 2030 UTC 10 August 2022
Temperature: 24.0°C (75°F)
Dewpoint: 8.0°C (46°F) [RH = 36%]
Pressure (altimeter): 30.12 inches Hg (1020.0 mb)
Winds: from the SE (140 degrees) at 13 MPH (11 knots; 5.7 m/s)
Visibility: 6 or more miles (10+ km)
Ceiling: ceiling and visibility are OK
Clouds: unknown
Weather: no significant weather observed at this time